Time;durP1;ratioP1;P1;durP2;ratioP2;P2;SDS_P1;SDS_P2;PMS_P1;PMS_P2;Temp;Humidity;BMP_temperature;BMP_pressure;BME280_temperature;BME280_humidity;BME280_pressure;Samples;Min_cycle;Max_cycle;Signal;HPM_P1;HPM_P2
2024/02/09 00:00:12;;;;;;;14.80;5.07;;;11.70;99.90;;;;;;5095940;28;20238;-87
2024/02/09 00:02:44;;;;;;;12.80;5.57;;;11.80;99.90;;;;;;5097677;28;20184;-86
2024/02/09 00:05:16;;;;;;;16.63;5.80;;;11.80;99.90;;;;;;5097184;28;20188;-89
2024/02/09 00:07:48;;;;;;;18.30;6.07;;;11.70;99.90;;;;;;5096874;28;20210;-90
2024/02/09 00:10:20;;;;;;;13.13;5.07;;;11.70;99.90;;;;;;5096017;28;20206;-85
2024/02/09 00:12:53;;;;;;;15.53;5.70;;;11.70;99.90;;;;;;5096570;28;20178;-91
2024/02/09 00:15:20;;;;;;;13.03;5.63;;;11.80;99.90;;;;;;5095956;28;20174;-93
2024/02/09 00:17:48;;;;;;;12.50;5.43;;;11.80;99.90;;;;;;5096495;28;20238;-85
2024/02/09 00:20:13;;;;;;;14.60;5.80;;;11.70;99.90;;;;;;5095944;28;20198;-86
2024/02/09 00:22:39;;;;;;;11.80;5.23;;;11.80;99.90;;;;;;5095908;28;20295;-86
2024/02/09 00:25:11;;;;;;;13.10;5.50;;;11.80;99.90;;;;;;5096514;28;20193;-86
2024/02/09 00:27:37;;;;;;;10.97;4.97;;;11.70;99.90;;;;;;5095181;28;20168;-86
2024/02/09 00:30:07;;;;;;;13.10;5.47;;;11.70;99.90;;;;;;5095788;28;20240;-87
2024/02/09 00:32:34;;;;;;;11.60;4.33;;;11.70;99.90;;;;;;5112960;28;20254;-86
2024/02/09 00:34:59;;;;;;;12.43;5.10;;;11.70;99.90;;;;;;5097062;28;20176;-85
2024/02/09 00:37:26;;;;;;;14.30;5.47;;;11.70;99.90;;;;;;5098494;28;20176;-84
2024/02/09 00:39:52;;;;;;;10.47;4.40;;;11.70;99.90;;;;;;5099327;28;20620;-84
2024/02/09 00:42:18;;;;;;;13.90;5.27;;;11.70;99.90;;;;;;5098401;28;20185;-86
2024/02/09 00:44:44;;;;;;;10.77;5.30;;;11.70;99.90;;;;;;5095787;28;20171;-87
2024/02/09 00:47:11;;;;;;;9.47;4.90;;;11.70;99.90;;;;;;5095038;28;20236;-83
2024/02/09 00:49:41;;;;;;;10.77;4.83;;;11.70;99.90;;;;;;5094829;28;20681;-86
2024/02/09 00:52:10;;;;;;;10.07;4.67;;;11.70;99.90;;;;;;5094371;28;20177;-91
2024/02/09 00:54:38;;;;;;;12.03;4.67;;;11.60;99.90;;;;;;5094922;28;20182;-86
2024/02/09 00:57:05;;;;;;;10.73;4.37;;;11.60;99.90;;;;;;5098240;28;20194;-85
2024/02/09 00:59:31;;;;;;;9.40;4.50;;;11.50;99.90;;;;;;5096654;28;20167;-86
2024/02/09 01:01:58;;;;;;;12.00;4.90;;;11.50;99.90;;;;;;5081310;28;20206;-86
2024/02/09 01:04:27;;;;;;;7.77;3.60;;;11.50;99.90;;;;;;5096672;28;20264;-93
2024/02/09 01:06:55;;;;;;;7.80;4.00;;;11.60;99.90;;;;;;5094891;28;20738;-85
2024/02/09 01:09:23;;;;;;;9.13;3.87;;;11.50;99.90;;;;;;5096077;28;20272;-85
2024/02/09 01:11:48;;;;;;;8.93;3.30;;;11.50;99.90;;;;;;5095692;28;20260;-86
2024/02/09 02:47:03;;;;;;;7.27;3.27;;;11.20;99.90;;;;;;5117631;28;20188;-85
2024/02/09 03:06:15;;;;;;;6.60;3.53;;;11.30;99.90;;;;;;5091761;28;20602;-85
2024/02/09 03:08:40;;;;;;;7.90;2.93;;;11.30;99.90;;;;;;5097452;28;20167;-87
2024/02/09 03:11:06;;;;;;;5.77;3.00;;;11.30;99.90;;;;;;5097490;28;20241;-86
2024/02/09 03:13:33;;;;;;;4.60;2.63;;;11.30;99.90;;;;;;5097585;28;20169;-85
2024/02/09 03:16:00;;;;;;;6.97;3.00;;;11.30;99.90;;;;;;5097256;28;20178;-85
2024/02/09 03:18:26;;;;;;;4.00;2.70;;;11.40;99.90;;;;;;5096627;28;20167;-85
2024/02/09 03:20:55;;;;;;;7.53;3.43;;;11.30;99.90;;;;;;5097637;28;20163;-94
2024/02/09 03:23:21;;;;;;;6.17;3.03;;;11.30;99.90;;;;;;5114798;28;20305;-86
2024/02/09 03:25:48;;;;;;;4.83;3.07;;;11.40;99.90;;;;;;5098998;28;20195;-85
2024/02/09 03:28:14;;;;;;;6.47;2.97;;;11.40;99.90;;;;;;5095159;28;20243;-84
2024/02/09 03:30:40;;;;;;;6.40;2.97;;;11.40;99.90;;;;;;5096662;28;20204;-85
2024/02/09 03:33:06;;;;;;;7.83;3.30;;;11.60;99.90;;;;;;5097051;28;20167;-86
2024/02/09 03:35:33;;;;;;;8.90;3.07;;;11.50;99.90;;;;;;5095944;28;20177;-85
2024/02/09 03:38:00;;;;;;;5.53;2.93;;;11.60;99.90;;;;;;5096993;28;20199;-84
2024/02/09 03:40:25;;;;;;;7.40;3.23;;;11.60;99.90;;;;;;5096356;28;20241;-86
2024/02/09 03:42:51;;;;;;;7.60;3.20;;;11.50;99.90;;;;;;5096527;28;20622;-86
2024/02/09 03:45:17;;;;;;;8.10;2.87;;;11.60;99.90;;;;;;5096889;28;20181;-89
2024/02/09 03:47:43;;;;;;;6.03;2.93;;;11.50;99.90;;;;;;5100673;28;20177;-85
2024/02/09 03:50:09;;;;;;;5.97;3.50;;;11.50;99.90;;;;;;5098463;28;20208;-85
2024/02/09 03:52:34;;;;;;;6.87;2.63;;;11.50;99.90;;;;;;5116458;28;20211;-86
2024/02/09 03:55:00;;;;;;;7.63;3.80;;;11.50;99.90;;;;;;5115277;28;20193;-84
2024/02/09 03:57:28;;;;;;;7.03;2.90;;;11.60;99.90;;;;;;5095806;28;20193;-86
2024/02/09 03:59:54;;;;;;;5.03;2.93;;;11.60;99.90;;;;;;5096274;28;20528;-87
2024/02/09 04:02:21;;;;;;;8.90;3.33;;;11.60;99.90;;;;;;5095064;28;20171;-85
2024/02/09 04:04:47;;;;;;;6.77;2.87;;;11.50;99.90;;;;;;5080646;28;20171;-88
2024/02/09 04:07:15;;;;;;;6.83;2.90;;;11.50;99.90;;;;;;5098336;28;20537;-86
2024/02/09 04:09:41;;;;;;;6.67;3.23;;;11.60;99.90;;;;;;5095722;28;20614;-85
2024/02/09 04:12:08;;;;;;;5.17;2.93;;;11.50;99.90;;;;;;5095330;28;20180;-85
2024/02/09 04:14:34;;;;;;;5.33;2.93;;;11.50;99.90;;;;;;5095216;28;20249;-85
2024/02/09 04:17:00;;;;;;;8.80;3.27;;;11.50;99.90;;;;;;5096107;28;20213;-85
2024/02/09 04:19:26;;;;;;;5.33;2.90;;;11.60;99.90;;;;;;5096504;28;20281;-84
2024/02/09 04:21:54;;;;;;;8.90;3.20;;;11.60;99.90;;;;;;5096273;28;20393;-85
2024/02/09 04:24:25;;;;;;;7.77;3.00;;;11.60;99.90;;;;;;5095883;28;20174;-86
2024/02/09 04:26:51;;;;;;;11.90;3.37;;;11.60;99.90;;;;;;5095765;28;20204;-84
2024/02/09 04:29:23;;;;;;;10.23;2.97;;;11.70;99.90;;;;;;5096421;28;20207;-93
2024/02/09 04:31:50;;;;;;;7.00;2.77;;;11.70;99.90;;;;;;5096054;28;20171;-88
2024/02/09 04:34:16;;;;;;;8.40;2.90;;;11.80;99.90;;;;;;5095546;28;20659;-86
2024/02/09 04:36:44;;;;;;;7.63;2.63;;;11.70;99.90;;;;;;5095456;28;20178;-84
2024/02/09 04:39:10;;;;;;;6.20;2.80;;;11.70;99.90;;;;;;5095767;28;20186;-92
2024/02/09 04:41:43;;;;;;;7.13;3.47;;;11.70;99.90;;;;;;5095700;28;20180;-85
2024/02/09 04:44:09;;;;;;;7.63;3.23;;;11.80;99.90;;;;;;5095114;28;20173;-89
2024/02/09 04:46:35;;;;;;;7.23;3.13;;;11.80;99.90;;;;;;5095094;28;20178;-86
2024/02/09 04:49:06;;;;;;;6.97;3.10;;;11.80;99.90;;;;;;5114203;28;20635;-89
2024/02/09 04:51:42;;;;;;;7.77;3.20;;;11.80;99.90;;;;;;5095690;28;20218;-86
2024/02/09 04:54:08;;;;;;;8.73;3.00;;;11.80;99.90;;;;;;5094743;28;20170;-85
2024/02/09 04:56:33;;;;;;;7.20;3.07;;;11.80;99.90;;;;;;5095218;28;20180;-86
2024/02/09 04:59:01;;;;;;;10.80;3.50;;;11.80;99.90;;;;;;5094929;28;20175;-85
2024/02/09 05:01:31;;;;;;;6.47;2.83;;;11.80;99.90;;;;;;5095904;28;20279;-85
2024/02/09 05:03:58;;;;;;;7.40;2.67;;;11.80;99.90;;;;;;5095802;28;20665;-85
2024/02/09 05:06:28;;;;;;;6.70;3.00;;;11.90;99.90;;;;;;5119104;28;20162;-84
2024/02/09 05:08:58;;;;;;;10.53;3.47;;;11.80;99.90;;;;;;5120156;28;20155;-86
2024/02/09 05:11:29;;;;;;;7.10;3.17;;;11.90;99.90;;;;;;5119759;28;20247;-85
2024/02/09 05:14:00;;;;;;;7.30;3.10;;;11.90;99.90;;;;;;5137900;28;20182;-85
2024/02/09 05:16:53;;;;;;;6.93;2.63;;;11.90;99.90;;;;;;5122125;28;20175;-85
2024/02/09 05:19:19;;;;;;;7.27;2.60;;;11.90;99.90;;;;;;5102086;28;20162;-93
2024/02/09 05:21:48;;;;;;;6.17;2.70;;;11.90;99.90;;;;;;5102370;28;20159;-86
2024/02/09 05:24:13;;;;;;;6.30;2.53;;;11.90;99.90;;;;;;5099892;28;20213;-85
2024/02/09 05:26:39;;;;;;;6.50;2.83;;;11.90;99.90;;;;;;5101500;28;20209;-86
2024/02/09 05:29:05;;;;;;;9.20;2.70;;;12.00;99.90;;;;;;5100659;28;20292;-85
2024/02/09 05:31:31;;;;;;;7.20;3.07;;;12.00;99.90;;;;;;5101902;28;20249;-85
2024/02/09 05:33:57;;;;;;;5.37;2.60;;;12.00;99.90;;;;;;5102004;28;20182;-86
2024/02/09 05:36:27;;;;;;;5.70;2.53;;;12.00;99.90;;;;;;5100811;28;20174;-92
2024/02/09 05:38:57;;;;;;;6.83;2.63;;;12.00;99.90;;;;;;5101027;28;20173;-91
2024/02/09 05:41:23;;;;;;;5.67;2.40;;;12.00;99.90;;;;;;5100889;28;20178;-86
2024/02/09 05:43:54;;;;;;;6.63;2.87;;;12.00;99.90;;;;;;5102265;28;20223;-85
2024/02/09 05:46:20;;;;;;;9.63;2.80;;;12.00;99.90;;;;;;5101968;28;20163;-87
2024/02/09 05:48:49;;;;;;;9.70;2.37;;;12.00;99.90;;;;;;5101593;28;20272;-90
2024/02/09 05:51:17;;;;;;;6.73;2.60;;;12.00;99.90;;;;;;5101037;28;20258;-85
2024/02/09 05:53:43;;;;;;;6.50;2.47;;;12.10;99.90;;;;;;5101502;28;20224;-86
2024/02/09 05:56:26;;;;;;;6.30;2.57;;;12.00;99.90;;;;;;5100171;28;20178;-85
2024/02/09 05:58:55;;;;;;;8.63;2.63;;;12.00;99.90;;;;;;5101261;28;20594;-87
2024/02/09 06:01:21;;;;;;;7.23;2.87;;;12.00;99.90;;;;;;5100946;28;20246;-89
2024/02/09 06:03:47;;;;;;;6.80;2.87;;;12.00;99.90;;;;;;5101830;28;20266;-85
2024/02/09 06:06:15;;;;;;;6.13;2.97;;;12.00;99.90;;;;;;5101156;28;20250;-86
2024/02/09 06:08:45;;;;;;;4.63;2.30;;;12.10;99.90;;;;;;5101589;28;20591;-94
2024/02/09 06:11:12;;;;;;;4.30;2.00;;;12.10;99.90;;;;;;5100876;28;20202;-86
2024/02/09 06:13:37;;;;;;;5.73;2.50;;;12.00;99.90;;;;;;5100646;28;20214;-86
2024/02/09 06:16:04;;;;;;;5.63;2.80;;;12.10;99.90;;;;;;5101576;28;20512;-85
2024/02/09 06:18:32;;;;;;;5.53;2.30;;;12.10;99.90;;;;;;5120265;28;20174;-86
2024/02/09 06:21:00;;;;;;;7.23;2.87;;;12.00;99.90;;;;;;5101560;28;20273;-85
2024/02/09 06:23:26;;;;;;;5.07;2.77;;;12.10;99.90;;;;;;5101796;28;20198;-86
2024/02/09 06:25:52;;;;;;;5.63;2.47;;;12.00;99.90;;;;;;5100541;28;20623;-86
2024/02/09 06:28:21;;;;;;;7.03;2.73;;;12.00;99.90;;;;;;5116874;28;20158;-86
2024/02/09 06:30:47;;;;;;;6.93;3.00;;;12.00;99.90;;;;;;5098467;28;20287;-87
2024/02/09 06:33:18;;;;;;;6.70;2.83;;;11.90;99.90;;;;;;5097839;28;20175;-85
2024/02/09 06:35:44;;;;;;;6.93;2.57;;;11.90;99.90;;;;;;5098618;28;20653;-86
2024/02/09 06:38:11;;;;;;;6.00;2.30;;;11.90;99.90;;;;;;5100806;28;20169;-86
2024/02/09 06:40:38;;;;;;;6.30;2.70;;;11.90;99.90;;;;;;5098598;28;20197;-86
2024/02/09 06:43:04;;;;;;;5.40;2.30;;;11.90;99.90;;;;;;5097723;28;20277;-85
2024/02/09 06:45:30;;;;;;;5.93;2.60;;;11.90;99.90;;;;;;5095535;28;20177;-87
2024/02/09 06:47:56;;;;;;;7.20;2.23;;;11.90;99.90;;;;;;5096261;28;20527;-85
2024/02/09 06:50:21;;;;;;;8.93;2.60;;;11.90;99.90;;;;;;5096754;28;20195;-85
2024/02/09 06:52:48;;;;;;;5.57;2.27;;;12.00;99.90;;;;;;5096101;28;20174;-83
2024/02/09 06:55:19;;;;;;;6.67;2.70;;;12.00;99.90;;;;;;5114850;28;20173;-86
2024/02/09 06:57:45;;;;;;;6.03;2.60;;;12.00;99.90;;;;;;5096699;28;20187;-85
2024/02/09 07:00:13;;;;;;;9.27;2.73;;;12.00;99.90;;;;;;5097112;28;20247;-85
2024/02/09 07:02:40;;;;;;;7.10;2.80;;;12.00;99.90;;;;;;5115789;28;20528;-85
2024/02/09 07:05:19;;;;;;;7.37;2.57;;;12.00;99.90;;;;;;5097343;28;20737;-84
2024/02/09 07:07:53;;;;;;;6.00;2.50;;;12.00;99.90;;;;;;5096375;28;20169;-85
2024/02/09 07:10:22;;;;;;;7.27;2.80;;;11.90;99.90;;;;;;5095875;28;20237;-86
2024/02/09 07:12:51;;;;;;;5.70;2.43;;;12.00;99.90;;;;;;5113209;28;20638;-86
2024/02/09 07:15:18;;;;;;;6.70;2.67;;;12.00;99.90;;;;;;5096847;28;20188;-85
2024/02/09 07:17:44;;;;;;;5.40;2.60;;;12.00;99.90;;;;;;5114830;28;20171;-85
2024/02/09 07:20:11;;;;;;;6.00;2.50;;;11.90;99.90;;;;;;5094767;28;20183;-86
2024/02/09 07:22:37;;;;;;;7.10;2.83;;;12.00;99.90;;;;;;5096677;28;20177;-88
2024/02/09 07:25:03;;;;;;;9.13;2.57;;;12.10;99.90;;;;;;5088714;28;20197;-84
2024/02/09 07:27:29;;;;;;;6.20;2.27;;;12.00;99.90;;;;;;5092898;28;20177;-85
2024/02/09 07:29:56;;;;;;;7.67;2.57;;;12.10;99.90;;;;;;5092438;28;20615;-84
2024/02/09 07:32:22;;;;;;;7.73;2.43;;;12.20;99.90;;;;;;5093380;28;20179;-84
2024/02/09 07:34:48;;;;;;;6.83;2.40;;;12.20;99.90;;;;;;5092756;28;20179;-85
2024/02/09 07:37:14;;;;;;;7.93;2.60;;;12.20;99.90;;;;;;5110205;28;20256;-86
2024/02/09 07:39:41;;;;;;;8.90;2.93;;;12.20;99.90;;;;;;5093020;28;20175;-84
2024/02/09 07:42:08;;;;;;;5.20;2.20;;;12.30;99.90;;;;;;5092715;28;20232;-83
2024/02/09 07:44:36;;;;;;;7.73;2.53;;;12.40;99.90;;;;;;5092847;28;20223;-86
2024/02/09 07:47:06;;;;;;;4.77;2.43;;;12.30;99.90;;;;;;5093183;28;20646;-86
2024/02/09 07:49:32;;;;;;;4.80;2.40;;;12.40;99.90;;;;;;5093308;28;20286;-85
2024/02/09 07:51:59;;;;;;;4.67;2.57;;;12.40;99.90;;;;;;5093238;28;20265;-84
2024/02/09 07:54:26;;;;;;;7.43;2.80;;;12.40;99.90;;;;;;5090685;28;20191;-87
2024/02/09 07:56:53;;;;;;;6.93;2.83;;;12.40;99.90;;;;;;5093701;28;20186;-84
2024/02/09 07:59:19;;;;;;;8.30;2.33;;;12.40;99.90;;;;;;5093956;28;20174;-86
2024/02/09 08:01:47;;;;;;;5.43;2.20;;;12.50;99.90;;;;;;5096341;28;20289;-83
2024/02/09 08:04:13;;;;;;;7.63;2.50;;;12.40;99.90;;;;;;5094127;28;20185;-85
2024/02/09 08:06:39;;;;;;;6.07;2.50;;;12.50;99.90;;;;;;5092424;28;20184;-84
2024/02/09 08:09:05;;;;;;;9.43;2.67;;;12.60;99.90;;;;;;5094043;28;20182;-84
2024/02/09 08:11:31;;;;;;;6.27;2.50;;;12.60;99.90;;;;;;5096874;28;20268;-84
2024/02/09 08:13:58;;;;;;;6.43;2.00;;;12.60;99.90;;;;;;5093776;28;20642;-85
2024/02/09 08:16:23;;;;;;;7.80;2.30;;;12.60;99.90;;;;;;5095116;28;20178;-85
2024/02/09 08:18:50;;;;;;;7.90;2.43;;;12.50;99.90;;;;;;5115907;28;20197;-84
2024/02/09 08:21:17;;;;;;;5.80;2.50;;;12.60;99.90;;;;;;5117886;28;20185;-83
2024/02/09 08:23:44;;;;;;;6.60;2.27;;;12.60;99.90;;;;;;5115696;28;20206;-84
2024/02/09 08:26:10;;;;;;;7.60;2.40;;;12.60;99.90;;;;;;5133458;28;20209;-85
2024/02/09 08:28:43;;;;;;;5.73;2.33;;;12.60;99.90;;;;;;5111122;28;20202;-86
2024/02/09 08:31:15;;;;;;;5.43;2.27;;;12.60;99.90;;;;;;5101918;28;20255;-85
2024/02/09 08:33:51;;;;;;;10.27;2.90;;;12.70;99.90;;;;;;5093726;28;20230;-85
2024/02/09 08:36:22;;;;;;;7.93;2.30;;;12.80;99.90;;;;;;5093714;28;20247;-85
2024/02/09 08:38:51;;;;;;;8.30;2.40;;;12.80;99.90;;;;;;5093396;28;20175;-85
2024/02/09 08:41:18;;;;;;;7.60;2.53;;;12.80;99.90;;;;;;5093226;28;20591;-85
2024/02/09 08:43:46;;;;;;;6.70;2.47;;;12.70;99.90;;;;;;5092676;28;21405;-88
2024/02/09 08:46:12;;;;;;;7.13;2.67;;;12.70;99.90;;;;;;5093228;28;20210;-86
2024/02/09 08:48:37;;;;;;;6.83;2.70;;;12.70;99.90;;;;;;5109760;28;20265;-83
2024/02/09 08:51:03;;;;;;;8.97;2.60;;;12.70;99.90;;;;;;5103114;28;20244;-88
2024/02/09 08:53:29;;;;;;;7.30;2.87;;;12.80;99.90;;;;;;5094852;28;20557;-84
2024/02/09 08:55:55;;;;;;;6.30;2.90;;;12.80;99.90;;;;;;5091860;28;20614;-85
2024/02/09 08:58:20;;;;;;;8.37;3.00;;;12.80;99.90;;;;;;5091786;28;20201;-85
2024/02/09 09:00:46;;;;;;;6.07;2.40;;;12.80;99.90;;;;;;5091665;28;20580;-89
2024/02/09 09:03:13;;;;;;;8.10;2.70;;;12.90;99.90;;;;;;5110217;28;20199;-86
2024/02/09 09:05:40;;;;;;;8.30;3.23;;;12.90;99.90;;;;;;5110265;28;20174;-87
2024/02/09 09:08:07;;;;;;;7.27;2.90;;;13.00;99.90;;;;;;5091578;28;20198;-88
2024/02/09 09:10:34;;;;;;;4.20;2.60;;;12.90;99.90;;;;;;5092155;28;20746;-88
2024/02/09 09:13:00;;;;;;;6.10;2.70;;;13.00;99.90;;;;;;5097463;28;20193;-86
2024/02/09 09:15:25;;;;;;;6.43;2.73;;;13.00;99.90;;;;;;5096949;28;20655;-87
2024/02/09 09:17:52;;;;;;;8.67;3.47;;;13.00;99.90;;;;;;5095566;28;20178;-87
2024/02/09 09:20:18;;;;;;;7.73;3.27;;;13.10;99.90;;;;;;5097093;28;20194;-87
2024/02/09 09:22:44;;;;;;;7.40;2.97;;;13.10;99.90;;;;;;5095722;28;20181;-88
2024/02/09 09:25:11;;;;;;;6.10;2.97;;;13.20;99.90;;;;;;5095865;28;20235;-86
2024/02/09 09:27:36;;;;;;;7.97;3.10;;;13.20;99.90;;;;;;5074586;28;20187;-89
2024/02/09 09:30:04;;;;;;;8.23;3.60;;;13.20;99.90;;;;;;5093000;28;20654;-86
2024/02/09 09:32:32;;;;;;;8.37;3.60;;;13.20;99.90;;;;;;5110806;28;20174;-86
2024/02/09 09:35:02;;;;;;;6.57;2.83;;;13.20;99.90;;;;;;5093289;28;20259;-85
2024/02/09 09:37:39;;;;;;;6.87;3.13;;;13.30;99.90;;;;;;5076515;28;20175;-84
2024/02/09 09:40:08;;;;;;;4.87;2.87;;;13.30;99.90;;;;;;5096181;28;20178;-91
2024/02/09 09:42:35;;;;;;;6.10;3.10;;;13.40;99.90;;;;;;5093517;28;20253;-85
2024/02/09 09:45:07;;;;;;;7.97;3.20;;;13.40;99.90;;;;;;5093982;28;20217;-84
2024/02/09 09:47:33;;;;;;;10.23;3.23;;;13.40;99.90;;;;;;5092062;28;20507;-87
2024/02/09 09:50:06;;;;;;;8.97;3.03;;;13.50;99.90;;;;;;5091505;28;20203;-85
2024/02/09 09:52:36;;;;;;;7.00;2.60;;;13.50;99.90;;;;;;5091648;28;20327;-87
2024/02/09 09:55:01;;;;;;;11.53;3.00;;;13.60;99.90;;;;;;5090838;28;20232;-85
2024/02/09 09:57:29;;;;;;;9.50;2.90;;;13.60;99.90;;;;;;5092240;28;20596;-88
2024/02/09 09:59:55;;;;;;;6.50;3.20;;;13.50;99.90;;;;;;5110518;28;20227;-86
2024/02/09 10:02:22;;;;;;;5.63;2.73;;;13.60;99.90;;;;;;5096353;28;20170;-86
2024/02/09 10:04:48;;;;;;;5.83;2.80;;;13.50;99.90;;;;;;5096940;28;20199;-86
2024/02/09 10:07:15;;;;;;;6.50;2.93;;;13.60;99.90;;;;;;5096018;28;20660;-85
2024/02/09 10:09:42;;;;;;;6.50;2.90;;;13.60;99.90;;;;;;5094462;28;20203;-84
2024/02/09 10:12:12;;;;;;;7.10;2.37;;;13.70;99.90;;;;;;5095239;28;20178;-84
2024/02/09 10:14:41;;;;;;;6.00;2.30;;;13.70;99.90;;;;;;5112550;28;20168;-84
2024/02/09 10:17:11;;;;;;;8.33;2.87;;;13.80;99.90;;;;;;5093942;28;20179;-84
2024/02/09 10:19:37;;;;;;;5.77;2.93;;;13.90;99.90;;;;;;5094339;28;20208;-86
2024/02/09 10:22:03;;;;;;;9.73;3.73;;;13.80;99.90;;;;;;5094621;28;20182;-85
2024/02/09 10:24:29;;;;;;;7.07;3.10;;;13.80;99.90;;;;;;5094410;28;20180;-85
2024/02/09 10:26:55;;;;;;;6.50;3.03;;;13.90;99.90;;;;;;5094785;28;20222;-88
2024/02/09 10:29:25;;;;;;;7.40;3.60;;;13.80;99.90;;;;;;5096006;28;20282;-85
2024/02/09 10:31:54;;;;;;;8.40;3.53;;;13.90;99.90;;;;;;5095007;28;20182;-85
2024/02/09 10:34:21;;;;;;;8.23;3.10;;;13.80;99.90;;;;;;5091877;28;20706;-86
2024/02/09 10:36:47;;;;;;;9.23;3.47;;;13.80;99.90;;;;;;5094491;28;20198;-85
2024/02/09 10:39:13;;;;;;;10.30;4.20;;;13.80;99.90;;;;;;5093901;28;20593;-84
2024/02/09 10:41:39;;;;;;;9.10;4.47;;;13.80;99.90;;;;;;5093576;28;20183;-84
2024/02/09 10:44:08;;;;;;;8.27;3.70;;;13.70;99.90;;;;;;5094370;28;20583;-86
2024/02/09 10:46:38;;;;;;;11.53;4.50;;;13.70;99.90;;;;;;5094480;28;20182;-88
2024/02/09 10:49:06;;;;;;;6.53;3.80;;;13.80;99.90;;;;;;5093915;28;20170;-84
2024/02/09 10:51:35;;;;;;;9.63;4.27;;;13.80;99.90;;;;;;5093718;28;20176;-84
2024/02/09 10:54:12;;;;;;;8.57;3.63;;;13.90;99.90;;;;;;5094171;28;20182;-85
2024/02/09 10:56:39;;;;;;;6.37;3.30;;;13.90;99.90;;;;;;5093634;28;20202;-86
2024/02/09 10:59:05;;;;;;;7.97;3.87;;;14.00;99.90;;;;;;5092734;28;20179;-85
2024/02/09 11:01:33;;;;;;;9.53;4.53;;;14.10;99.90;;;;;;5092766;28;20186;-85
2024/02/09 11:04:00;;;;;;;10.87;4.60;;;13.90;99.90;;;;;;5093095;28;20274;-85
2024/02/09 11:06:27;;;;;;;6.77;3.47;;;14.10;99.90;;;;;;5093087;28;20211;-85
2024/02/09 11:08:54;;;;;;;7.33;3.63;;;14.10;99.90;;;;;;5090883;28;20265;-84
2024/02/09 11:11:27;;;;;;;9.30;3.77;;;14.10;99.90;;;;;;5107361;28;20295;-88
2024/02/09 11:14:04;;;;;;;10.63;4.40;;;14.10;99.90;;;;;;5098425;28;20172;-83
2024/02/09 11:16:29;;;;;;;8.33;3.97;;;14.10;99.90;;;;;;5113146;28;20172;-83
2024/02/09 11:18:55;;;;;;;9.07;4.43;;;14.00;99.90;;;;;;5095188;28;20543;-87
2024/02/09 11:21:21;;;;;;;8.40;3.90;;;14.00;99.90;;;;;;5096326;28;20184;-85
2024/02/09 11:23:46;;;;;;;8.33;4.00;;;14.00;99.90;;;;;;5093904;28;20192;-85
2024/02/09 11:26:16;;;;;;;8.70;3.70;;;13.90;99.90;;;;;;5094299;28;20319;-85
2024/02/09 11:28:42;;;;;;;10.07;3.73;;;13.90;99.90;;;;;;5112468;28;20179;-90
2024/02/09 11:31:12;;;;;;;9.50;3.97;;;14.00;99.90;;;;;;5109807;28;20335;-84
2024/02/09 11:33:41;;;;;;;7.33;3.60;;;13.90;99.90;;;;;;5117330;28;20190;-85
2024/02/09 11:36:07;;;;;;;9.77;2.93;;;14.00;99.90;;;;;;5116267;28;20188;-86
2024/02/09 11:38:34;;;;;;;4.57;2.33;;;13.90;99.90;;;;;;5115846;28;20183;-86
2024/02/09 11:41:01;;;;;;;7.70;3.13;;;13.90;99.90;;;;;;5099387;28;20171;-84
2024/02/09 11:43:38;;;;;;;5.47;2.00;;;14.00;99.90;;;;;;5095764;28;20639;-86
2024/02/09 11:46:08;;;;;;;6.27;2.30;;;14.00;99.90;;;;;;5095701;28;20186;-87
2024/02/09 11:48:37;;;;;;;3.57;2.00;;;13.90;99.90;;;;;;5094797;28;20179;-86
2024/02/09 11:51:02;;;;;;;6.27;2.10;;;13.80;99.90;;;;;;5094436;28;20348;-86
2024/02/09 11:53:29;;;;;;;6.90;2.80;;;13.70;99.90;;;;;;5094440;28;20211;-87
2024/02/09 11:55:55;;;;;;;7.40;3.07;;;13.80;99.90;;;;;;5093300;28;20333;-85
2024/02/09 11:58:21;;;;;;;10.37;3.33;;;13.80;99.90;;;;;;5094673;28;20665;-86
2024/02/09 12:00:50;;;;;;;7.00;2.50;;;13.80;99.90;;;;;;5093704;28;20598;-86
2024/02/09 12:03:17;;;;;;;7.07;2.67;;;13.90;99.40;;;;;;5094732;28;20180;-87
2024/02/09 12:05:44;;;;;;;7.77;2.57;;;14.00;99.60;;;;;;5094179;28;20268;-87
2024/02/09 12:08:09;;;;;;;6.43;2.07;;;14.00;99.60;;;;;;5094185;28;20175;-86
2024/02/09 12:10:36;;;;;;;5.33;1.83;;;14.00;97.10;;;;;;5093369;28;20735;-86
2024/02/09 12:13:02;;;;;;;8.60;2.60;;;14.10;96.80;;;;;;5093171;28;20217;-86
2024/02/09 12:15:29;;;;;;;4.87;2.10;;;14.30;96.50;;;;;;5111345;28;20226;-86
2024/02/09 12:17:59;;;;;;;6.20;2.20;;;14.40;95.20;;;;;;5092965;28;20184;-85
2024/02/09 12:20:24;;;;;;;6.70;2.20;;;14.50;93.50;;;;;;5111862;28;20206;-85
2024/02/09 12:22:50;;;;;;;7.03;2.60;;;14.60;92.00;;;;;;5092759;28;20201;-84
2024/02/09 12:25:17;;;;;;;6.90;2.67;;;14.50;91.90;;;;;;5093517;28;20180;-85
2024/02/09 12:27:42;;;;;;;5.87;2.23;;;14.40;92.80;;;;;;5093319;28;20194;-86
2024/02/09 12:30:12;;;;;;;8.83;2.20;;;14.30;91.90;;;;;;5093437;28;20289;-84
2024/02/09 12:32:38;;;;;;;5.27;1.80;;;14.30;90.40;;;;;;5094914;28;20530;-85
2024/02/09 12:35:04;;;;;;;7.67;2.10;;;14.20;89.00;;;;;;5093874;28;20224;-86
2024/02/09 12:37:31;;;;;;;4.33;1.40;;;14.30;89.30;;;;;;5093149;28;20175;-86
2024/02/09 12:39:58;;;;;;;4.93;1.87;;;14.30;88.80;;;;;;5074305;28;20202;-86
2024/02/09 12:42:31;;;;;;;5.53;1.60;;;14.20;91.30;;;;;;5093014;28;20261;-84
2024/02/09 12:45:01;;;;;;;6.80;1.90;;;14.30;92.90;;;;;;5093520;28;20174;-86
2024/02/09 12:47:29;;;;;;;3.63;1.53;;;14.20;95.00;;;;;;5092823;28;20175;-85
2024/02/09 12:49:56;;;;;;;7.03;2.00;;;14.20;97.30;;;;;;5092942;28;20202;-85
2024/02/09 12:52:25;;;;;;;5.83;1.83;;;14.10;99.90;;;;;;5093076;28;20186;-85
2024/02/09 12:54:54;;;;;;;7.03;2.00;;;14.10;99.90;;;;;;5089772;28;20184;-85
2024/02/09 12:57:21;;;;;;;5.07;2.13;;;14.10;99.90;;;;;;5091215;28;20731;-85
2024/02/09 12:59:46;;;;;;;6.00;2.20;;;14.10;99.90;;;;;;5091334;28;20195;-85
2024/02/09 13:02:12;;;;;;;6.77;2.30;;;14.10;99.90;;;;;;5110697;28;20181;-85
2024/02/09 13:04:38;;;;;;;7.80;2.37;;;14.20;99.90;;;;;;5088855;28;20231;-88
2024/02/09 13:07:06;;;;;;;7.37;2.43;;;14.20;99.90;;;;;;5092645;28;20275;-85
2024/02/09 13:09:35;;;;;;;7.10;2.43;;;14.20;99.90;;;;;;5092138;28;20279;-84
2024/02/09 13:12:22;;;;;;;9.40;2.60;;;14.10;99.90;;;;;;5092659;28;20240;-91
2024/02/09 13:14:49;;;;;;;8.60;2.90;;;14.00;99.90;;;;;;5092455;28;20549;-84
2024/02/09 13:17:14;;;;;;;6.97;2.50;;;14.10;99.90;;;;;;5092065;28;20178;-85
2024/02/09 13:19:40;;;;;;;7.77;2.90;;;14.00;99.90;;;;;;5094843;28;20174;-87
2024/02/09 13:22:08;;;;;;;5.53;2.73;;;14.00;99.90;;;;;;5093125;28;20559;-87
2024/02/09 13:24:39;;;;;;;6.97;3.60;;;14.00;99.90;;;;;;5091131;28;20229;-89
2024/02/09 13:27:06;;;;;;;6.63;3.07;;;14.10;99.90;;;;;;5091032;28;20401;-86
2024/02/09 13:29:32;;;;;;;9.00;2.90;;;14.10;99.90;;;;;;5093800;28;20270;-87
2024/02/09 13:31:59;;;;;;;5.60;2.27;;;14.00;99.90;;;;;;5095753;28;20303;-87
2024/02/09 13:34:25;;;;;;;7.03;2.53;;;13.90;99.90;;;;;;5093084;28;20188;-86
2024/02/09 13:36:51;;;;;;;4.13;2.30;;;14.20;99.90;;;;;;5096066;28;20289;-85
2024/02/09 13:39:17;;;;;;;5.93;2.40;;;13.90;99.90;;;;;;5114007;28;20638;-87
2024/02/09 13:41:43;;;;;;;5.10;2.70;;;13.90;99.90;;;;;;5095754;28;20171;-91
2024/02/09 13:44:09;;;;;;;5.07;2.90;;;13.80;99.90;;;;;;5096587;28;20261;-88
2024/02/09 13:46:35;;;;;;;6.87;2.90;;;13.80;99.90;;;;;;5095982;28;20261;-86
2024/02/09 13:49:01;;;;;;;7.70;2.80;;;13.90;99.90;;;;;;5095198;28;20180;-89
2024/02/09 13:51:29;;;;;;;7.07;2.77;;;13.90;99.90;;;;;;5078758;28;20224;-87
2024/02/09 13:54:00;;;;;;;4.90;2.43;;;14.10;99.90;;;;;;5095705;28;20212;-87
2024/02/09 13:56:26;;;;;;;7.93;2.90;;;14.10;99.90;;;;;;5094446;28;20208;-86
2024/02/09 13:58:52;;;;;;;5.73;3.00;;;14.10;99.90;;;;;;5093462;28;20288;-87
2024/02/09 14:01:18;;;;;;;6.23;3.00;;;14.30;99.90;;;;;;5096994;28;20298;-88
2024/02/09 14:03:44;;;;;;;8.53;3.27;;;14.10;99.90;;;;;;5114392;28;20227;-87
2024/02/09 14:06:12;;;;;;;7.30;3.50;;;13.90;99.90;;;;;;5095798;28;20236;-87
2024/02/09 14:08:40;;;;;;;13.10;3.93;;;14.00;99.90;;;;;;5095103;28;20216;-88
2024/02/09 14:11:05;;;;;;;12.83;3.97;;;13.90;99.90;;;;;;5095644;28;20212;-87
2024/02/09 14:13:31;;;;;;;8.03;3.10;;;13.90;99.90;;;;;;5094944;28;20178;-87
2024/02/09 14:15:58;;;;;;;8.17;3.63;;;14.00;99.90;;;;;;5095497;28;20510;-87
2024/02/09 14:18:24;;;;;;;9.03;3.83;;;14.00;99.90;;;;;;5098151;28;20215;-87
2024/02/09 14:20:53;;;;;;;5.23;2.53;;;14.00;99.90;;;;;;5098467;28;20180;-87
2024/02/09 14:23:19;;;;;;;8.93;3.30;;;14.00;99.90;;;;;;5098244;28;20174;-86
2024/02/09 14:25:44;;;;;;;10.10;2.83;;;14.00;99.90;;;;;;5098147;28;20744;-86
2024/02/09 14:28:12;;;;;;;9.80;2.93;;;14.10;99.90;;;;;;5116306;28;20196;-85
2024/02/09 14:30:39;;;;;;;5.97;2.47;;;14.00;99.90;;;;;;5097813;28;20211;-87
2024/02/09 14:33:05;;;;;;;7.57;2.97;;;14.00;99.90;;;;;;5097423;28;20174;-86
2024/02/09 14:35:33;;;;;;;7.73;2.47;;;14.00;99.90;;;;;;5097519;28;20206;-88